sensor_id;sensor_type;location;lat;lon;timestamp;temperature;humidity
6377;DHT22;3221;48.858;10.128;2023-07-31T00:01:48;15.30;99.90
6377;DHT22;3221;48.858;10.128;2023-07-31T00:04:22;15.30;99.90
6377;DHT22;3221;48.858;10.128;2023-07-31T00:06:49;15.30;99.90
6377;DHT22;3221;48.858;10.128;2023-07-31T00:09:21;15.20;99.90
6377;DHT22;3221;48.858;10.128;2023-07-31T00:11:53;15.30;99.90
6377;DHT22;3221;48.858;10.128;2023-07-31T00:14:36;15.30;99.90
6377;DHT22;3221;48.858;10.128;2023-07-31T00:17:03;15.30;99.90
6377;DHT22;3221;48.858;10.128;2023-07-31T00:19:33;15.40;99.90
6377;DHT22;3221;48.858;10.128;2023-07-31T00:22:00;15.30;99.90
6377;DHT22;3221;48.858;10.128;2023-07-31T00:24:27;15.50;99.90
6377;DHT22;3221;48.858;10.128;2023-07-31T00:27:00;15.20;99.90
6377;DHT22;3221;48.858;10.128;2023-07-31T00:29:27;15.20;99.90
6377;DHT22;3221;48.858;10.128;2023-07-31T00:31:54;15.10;99.90
6377;DHT22;3221;48.858;10.128;2023-07-31T00:34:21;15.10;99.90
6377;DHT22;3221;48.858;10.128;2023-07-31T00:36:48;15.20;99.90
6377;DHT22;3221;48.858;10.128;2023-07-31T00:39:15;15.20;99.90
6377;DHT22;3221;48.858;10.128;2023-07-31T00:41:44;15.20;99.90
6377;DHT22;3221;48.858;10.128;2023-07-31T00:44:14;15.10;99.90
6377;DHT22;3221;48.858;10.128;2023-07-31T00:46:40;15.10;99.90
6377;DHT22;3221;48.858;10.128;2023-07-31T00:49:11;15.10;99.90
6377;DHT22;3221;48.858;10.128;2023-07-31T00:51:38;15.10;99.90
6377;DHT22;3221;48.858;10.128;2023-07-31T00:54:06;15.00;99.90
6377;DHT22;3221;48.858;10.128;2023-07-31T00:56:39;15.00;99.90
6377;DHT22;3221;48.858;10.128;2023-07-31T00:59:15;14.90;99.90
6377;DHT22;3221;48.858;10.128;2023-07-31T01:01:45;14.80;99.90
6377;DHT22;3221;48.858;10.128;2023-07-31T01:04:13;14.80;99.90
6377;DHT22;3221;48.858;10.128;2023-07-31T01:06:52;14.80;99.90
6377;DHT22;3221;48.858;10.128;2023-07-31T01:11:57;14.80;99.90
6377;DHT22;3221;48.858;10.128;2023-07-31T01:14:27;14.80;99.90
6377;DHT22;3221;48.858;10.128;2023-07-31T01:16:54;14.80;99.90
6377;DHT22;3221;48.858;10.128;2023-07-31T01:19:23;14.80;99.90
6377;DHT22;3221;48.858;10.128;2023-07-31T01:24:37;14.80;99.90
6377;DHT22;3221;48.858;10.128;2023-07-31T01:27:17;14.80;99.90
6377;DHT22;3221;48.858;10.128;2023-07-31T01:29:56;14.80;99.90
6377;DHT22;3221;48.858;10.128;2023-07-31T01:32:25;14.70;99.90
6377;DHT22;3221;48.858;10.128;2023-07-31T01:34:54;14.70;99.90
6377;DHT22;3221;48.858;10.128;2023-07-31T01:37:21;14.60;99.90
6377;DHT22;3221;48.858;10.128;2023-07-31T01:39:48;14.60;99.90
6377;DHT22;3221;48.858;10.128;2023-07-31T01:42:15;14.70;99.90
6377;DHT22;3221;48.858;10.128;2023-07-31T01:44:42;14.60;99.90
6377;DHT22;3221;48.858;10.128;2023-07-31T01:47:09;14.70;99.90
6377;DHT22;3221;48.858;10.128;2023-07-31T01:49:36;14.60;99.90
6377;DHT22;3221;48.858;10.128;2023-07-31T01:52:03;14.60;99.90
6377;DHT22;3221;48.858;10.128;2023-07-31T01:54:30;14.60;99.90
6377;DHT22;3221;48.858;10.128;2023-07-31T01:56:57;14.50;99.90
6377;DHT22;3221;48.858;10.128;2023-07-31T01:59:24;14.60;99.90
6377;DHT22;3221;48.858;10.128;2023-07-31T02:01:51;14.50;99.90
6377;DHT22;3221;48.858;10.128;2023-07-31T02:04:20;14.40;99.90
6377;DHT22;3221;48.858;10.128;2023-07-31T02:06:47;14.30;99.90
6377;DHT22;3221;48.858;10.128;2023-07-31T02:09:14;14.50;99.90
6377;DHT22;3221;48.858;10.128;2023-07-31T02:11:41;14.40;99.90
6377;DHT22;3221;48.858;10.128;2023-07-31T02:14:07;14.20;99.90
6377;DHT22;3221;48.858;10.128;2023-07-31T02:16:34;14.30;99.90
6377;DHT22;3221;48.858;10.128;2023-07-31T02:19:01;14.30;99.90
6377;DHT22;3221;48.858;10.128;2023-07-31T02:21:28;14.30;99.90
6377;DHT22;3221;48.858;10.128;2023-07-31T02:23:55;14.30;99.90
6377;DHT22;3221;48.858;10.128;2023-07-31T02:26:22;14.30;99.90
6377;DHT22;3221;48.858;10.128;2023-07-31T02:28:49;14.20;99.90
6377;DHT22;3221;48.858;10.128;2023-07-31T02:31:16;14.20;99.90
6377;DHT22;3221;48.858;10.128;2023-07-31T02:33:44;14.40;99.90
6377;DHT22;3221;48.858;10.128;2023-07-31T02:36:11;14.20;99.90
6377;DHT22;3221;48.858;10.128;2023-07-31T02:38:40;14.10;99.90
6377;DHT22;3221;48.858;10.128;2023-07-31T02:41:07;14.10;99.90
6377;DHT22;3221;48.858;10.128;2023-07-31T02:43:34;14.10;99.90
6377;DHT22;3221;48.858;10.128;2023-07-31T02:46:00;14.10;99.90
6377;DHT22;3221;48.858;10.128;2023-07-31T02:48:27;14.10;99.90
6377;DHT22;3221;48.858;10.128;2023-07-31T02:50:54;14.10;99.90
6377;DHT22;3221;48.858;10.128;2023-07-31T02:53:21;14.10;99.90
6377;DHT22;3221;48.858;10.128;2023-07-31T02:55:51;14.10;99.90
6377;DHT22;3221;48.858;10.128;2023-07-31T02:58:18;14.00;99.90
6377;DHT22;3221;48.858;10.128;2023-07-31T03:00:45;13.90;99.90
6377;DHT22;3221;48.858;10.128;2023-07-31T03:03:12;14.10;99.90
6377;DHT22;3221;48.858;10.128;2023-07-31T03:05:39;14.10;99.90
6377;DHT22;3221;48.858;10.128;2023-07-31T03:08:06;14.20;99.90
6377;DHT22;3221;48.858;10.128;2023-07-31T03:10:33;14.00;99.90
6377;DHT22;3221;48.858;10.128;2023-07-31T03:13:00;14.10;99.90
6377;DHT22;3221;48.858;10.128;2023-07-31T03:15:27;14.10;99.90
6377;DHT22;3221;48.858;10.128;2023-07-31T03:17:54;14.00;99.90
6377;DHT22;3221;48.858;10.128;2023-07-31T03:20:21;14.00;99.90
6377;DHT22;3221;48.858;10.128;2023-07-31T03:22:47;14.00;99.90
6377;DHT22;3221;48.858;10.128;2023-07-31T03:25:14;14.00;99.90
6377;DHT22;3221;48.858;10.128;2023-07-31T03:27:41;14.00;99.90
6377;DHT22;3221;48.858;10.128;2023-07-31T03:30:08;14.00;99.90
6377;DHT22;3221;48.858;10.128;2023-07-31T03:32:35;13.90;99.90
6377;DHT22;3221;48.858;10.128;2023-07-31T03:35:03;13.90;99.90
6377;DHT22;3221;48.858;10.128;2023-07-31T03:37:32;13.90;99.90
6377;DHT22;3221;48.858;10.128;2023-07-31T03:39:59;13.90;99.90
6377;DHT22;3221;48.858;10.128;2023-07-31T03:42:26;13.90;99.90
6377;DHT22;3221;48.858;10.128;2023-07-31T03:44:53;14.00;99.90
6377;DHT22;3221;48.858;10.128;2023-07-31T03:47:20;14.00;99.90
6377;DHT22;3221;48.858;10.128;2023-07-31T03:49:47;14.10;99.90
6377;DHT22;3221;48.858;10.128;2023-07-31T03:52:14;14.00;99.90
6377;DHT22;3221;48.858;10.128;2023-07-31T03:54:41;14.00;99.90
6377;DHT22;3221;48.858;10.128;2023-07-31T03:57:07;14.10;99.90
6377;DHT22;3221;48.858;10.128;2023-07-31T03:59:34;14.00;99.90
6377;DHT22;3221;48.858;10.128;2023-07-31T04:02:01;13.90;99.90
6377;DHT22;3221;48.858;10.128;2023-07-31T04:04:28;13.90;99.90
6377;DHT22;3221;48.858;10.128;2023-07-31T04:06:55;13.80;99.90
6377;DHT22;3221;48.858;10.128;2023-07-31T04:09:22;13.90;99.90
6377;DHT22;3221;48.858;10.128;2023-07-31T04:11:49;13.90;99.90
6377;DHT22;3221;48.858;10.128;2023-07-31T04:14:16;13.90;99.90
6377;DHT22;3221;48.858;10.128;2023-07-31T04:16:43;13.90;99.90
6377;DHT22;3221;48.858;10.128;2023-07-31T04:19:10;13.80;99.90
6377;DHT22;3221;48.858;10.128;2023-07-31T04:21:37;13.90;99.90
6377;DHT22;3221;48.858;10.128;2023-07-31T04:24:04;13.90;99.90
6377;DHT22;3221;48.858;10.128;2023-07-31T04:26:31;13.90;99.90
6377;DHT22;3221;48.858;10.128;2023-07-31T04:28:57;13.90;99.90
6377;DHT22;3221;48.858;10.128;2023-07-31T04:31:24;13.90;99.90
6377;DHT22;3221;48.858;10.128;2023-07-31T04:33:53;13.90;99.90
6377;DHT22;3221;48.858;10.128;2023-07-31T04:36:20;14.00;99.90
6377;DHT22;3221;48.858;10.128;2023-07-31T04:38:46;13.90;99.90
6377;DHT22;3221;48.858;10.128;2023-07-31T04:41:13;13.90;99.90
6377;DHT22;3221;48.858;10.128;2023-07-31T04:43:40;13.80;99.90
6377;DHT22;3221;48.858;10.128;2023-07-31T04:46:07;13.90;99.90
6377;DHT22;3221;48.858;10.128;2023-07-31T04:48:35;14.00;99.90
6377;DHT22;3221;48.858;10.128;2023-07-31T04:51:17;14.00;99.90
6377;DHT22;3221;48.858;10.128;2023-07-31T04:53:46;14.10;99.90
6377;DHT22;3221;48.858;10.128;2023-07-31T04:56:16;14.10;99.90
6377;DHT22;3221;48.858;10.128;2023-07-31T04:58:43;14.10;99.90
6377;DHT22;3221;48.858;10.128;2023-07-31T05:01:09;14.10;99.90
6377;DHT22;3221;48.858;10.128;2023-07-31T05:03:36;14.10;99.90
6377;DHT22;3221;48.858;10.128;2023-07-31T05:06:03;14.10;99.90
6377;DHT22;3221;48.858;10.128;2023-07-31T05:08:30;14.30;99.90
6377;DHT22;3221;48.858;10.128;2023-07-31T05:10:57;14.20;99.90
6377;DHT22;3221;48.858;10.128;2023-07-31T05:13:23;14.20;99.90
6377;DHT22;3221;48.858;10.128;2023-07-31T05:15:50;14.40;99.90
6377;DHT22;3221;48.858;10.128;2023-07-31T05:18:17;14.30;99.90
6377;DHT22;3221;48.858;10.128;2023-07-31T05:20:44;14.10;99.90
6377;DHT22;3221;48.858;10.128;2023-07-31T05:23:11;14.10;99.90
6377;DHT22;3221;48.858;10.128;2023-07-31T05:25:38;14.10;99.90
6377;DHT22;3221;48.858;10.128;2023-07-31T05:28:04;14.10;99.90
6377;DHT22;3221;48.858;10.128;2023-07-31T05:30:31;14.30;99.90
6377;DHT22;3221;48.858;10.128;2023-07-31T05:32:58;14.30;99.90
6377;DHT22;3221;48.858;10.128;2023-07-31T05:35:25;14.50;99.90
6377;DHT22;3221;48.858;10.128;2023-07-31T05:37:52;14.30;99.90
6377;DHT22;3221;48.858;10.128;2023-07-31T05:40:19;14.30;99.90
6377;DHT22;3221;48.858;10.128;2023-07-31T05:42:45;14.40;99.90
6377;DHT22;3221;48.858;10.128;2023-07-31T05:45:12;14.50;99.90
6377;DHT22;3221;48.858;10.128;2023-07-31T05:47:40;14.40;99.90
6377;DHT22;3221;48.858;10.128;2023-07-31T05:50:08;14.40;99.90
6377;DHT22;3221;48.858;10.128;2023-07-31T05:52:35;14.40;99.90
6377;DHT22;3221;48.858;10.128;2023-07-31T05:55:01;14.40;99.90
6377;DHT22;3221;48.858;10.128;2023-07-31T05:57:29;14.50;99.90
6377;DHT22;3221;48.858;10.128;2023-07-31T05:59:56;14.50;99.90
6377;DHT22;3221;48.858;10.128;2023-07-31T06:02:23;14.40;99.90
6377;DHT22;3221;48.858;10.128;2023-07-31T06:04:50;14.50;99.90
6377;DHT22;3221;48.858;10.128;2023-07-31T06:07:17;14.50;99.90
6377;DHT22;3221;48.858;10.128;2023-07-31T06:09:44;14.40;99.90
6377;DHT22;3221;48.858;10.128;2023-07-31T06:12:11;14.50;99.90
6377;DHT22;3221;48.858;10.128;2023-07-31T06:14:38;14.50;99.90
6377;DHT22;3221;48.858;10.128;2023-07-31T06:17:05;14.60;99.90
6377;DHT22;3221;48.858;10.128;2023-07-31T06:19:32;14.60;99.90
6377;DHT22;3221;48.858;10.128;2023-07-31T06:21:59;14.60;99.90
6377;DHT22;3221;48.858;10.128;2023-07-31T06:24:25;14.80;99.90
6377;DHT22;3221;48.858;10.128;2023-07-31T06:26:52;14.80;99.90
6377;DHT22;3221;48.858;10.128;2023-07-31T06:29:19;14.70;99.90
6377;DHT22;3221;48.858;10.128;2023-07-31T06:31:48;14.70;99.90
6377;DHT22;3221;48.858;10.128;2023-07-31T06:34:15;14.70;99.90
6377;DHT22;3221;48.858;10.128;2023-07-31T06:36:41;14.90;99.90
6377;DHT22;3221;48.858;10.128;2023-07-31T06:39:15;14.80;99.90
6377;DHT22;3221;48.858;10.128;2023-07-31T06:41:43;14.70;99.90
6377;DHT22;3221;48.858;10.128;2023-07-31T06:44:10;14.70;99.90
6377;DHT22;3221;48.858;10.128;2023-07-31T06:46:42;14.80;99.90
6377;DHT22;3221;48.858;10.128;2023-07-31T06:49:11;14.90;99.90
6377;DHT22;3221;48.858;10.128;2023-07-31T06:51:43;14.80;99.90
6377;DHT22;3221;48.858;10.128;2023-07-31T06:54:10;14.80;99.90
6377;DHT22;3221;48.858;10.128;2023-07-31T06:56:40;15.00;99.90
6377;DHT22;3221;48.858;10.128;2023-07-31T06:59:07;14.90;99.90
6377;DHT22;3221;48.858;10.128;2023-07-31T07:01:34;14.90;99.90
6377;DHT22;3221;48.858;10.128;2023-07-31T07:04:01;14.80;99.90
6377;DHT22;3221;48.858;10.128;2023-07-31T07:06:29;14.90;99.90
6377;DHT22;3221;48.858;10.128;2023-07-31T07:08:56;15.10;99.90
6377;DHT22;3221;48.858;10.128;2023-07-31T07:11:23;15.10;99.90
6377;DHT22;3221;48.858;10.128;2023-07-31T07:13:51;15.20;99.90
6377;DHT22;3221;48.858;10.128;2023-07-31T07:16:18;15.30;99.90
6377;DHT22;3221;48.858;10.128;2023-07-31T07:18:44;15.30;99.90
6377;DHT22;3221;48.858;10.128;2023-07-31T07:21:29;15.30;99.90
6377;DHT22;3221;48.858;10.128;2023-07-31T07:23:56;15.40;99.90
6377;DHT22;3221;48.858;10.128;2023-07-31T07:26:23;15.60;99.90
6377;DHT22;3221;48.858;10.128;2023-07-31T07:28:50;15.50;99.90
6377;DHT22;3221;48.858;10.128;2023-07-31T07:31:17;15.70;99.90
6377;DHT22;3221;48.858;10.128;2023-07-31T07:33:45;15.60;99.90
6377;DHT22;3221;48.858;10.128;2023-07-31T07:36:12;15.60;99.90
6377;DHT22;3221;48.858;10.128;2023-07-31T07:38:39;15.60;99.90
6377;DHT22;3221;48.858;10.128;2023-07-31T07:41:07;15.50;99.90
6377;DHT22;3221;48.858;10.128;2023-07-31T07:43:34;15.40;99.90
6377;DHT22;3221;48.858;10.128;2023-07-31T07:46:01;15.40;99.90
6377;DHT22;3221;48.858;10.128;2023-07-31T07:48:28;15.50;99.90
6377;DHT22;3221;48.858;10.128;2023-07-31T07:50:55;15.50;99.90
6377;DHT22;3221;48.858;10.128;2023-07-31T07:53:22;15.40;99.90
6377;DHT22;3221;48.858;10.128;2023-07-31T07:55:49;15.50;99.90
6377;DHT22;3221;48.858;10.128;2023-07-31T07:58:16;15.70;99.90
6377;DHT22;3221;48.858;10.128;2023-07-31T08:00:49;15.80;99.90
6377;DHT22;3221;48.858;10.128;2023-07-31T08:03:16;15.80;99.90
6377;DHT22;3221;48.858;10.128;2023-07-31T08:05:44;15.70;99.90
6377;DHT22;3221;48.858;10.128;2023-07-31T08:08:15;15.80;99.90
6377;DHT22;3221;48.858;10.128;2023-07-31T08:10:43;15.80;99.90
6377;DHT22;3221;48.858;10.128;2023-07-31T08:13:13;15.80;99.90
6377;DHT22;3221;48.858;10.128;2023-07-31T08:15:43;15.80;99.90
6377;DHT22;3221;48.858;10.128;2023-07-31T08:18:10;16.00;99.90
6377;DHT22;3221;48.858;10.128;2023-07-31T08:20:38;15.90;99.90
6377;DHT22;3221;48.858;10.128;2023-07-31T08:23:05;15.90;99.90
6377;DHT22;3221;48.858;10.128;2023-07-31T08:25:35;16.00;99.90
6377;DHT22;3221;48.858;10.128;2023-07-31T08:28:03;16.00;99.90
6377;DHT22;3221;48.858;10.128;2023-07-31T08:30:30;16.00;99.90
6377;DHT22;3221;48.858;10.128;2023-07-31T08:32:58;16.00;99.90
6377;DHT22;3221;48.858;10.128;2023-07-31T08:35:29;16.10;99.90
6377;DHT22;3221;48.858;10.128;2023-07-31T08:37:59;16.10;99.90
6377;DHT22;3221;48.858;10.128;2023-07-31T08:40:54;16.20;99.90
6377;DHT22;3221;48.858;10.128;2023-07-31T08:43:22;16.30;99.90
6377;DHT22;3221;48.858;10.128;2023-07-31T08:45:52;16.20;99.90
6377;DHT22;3221;48.858;10.128;2023-07-31T08:48:35;16.40;99.90
6377;DHT22;3221;48.858;10.128;2023-07-31T08:51:03;16.50;99.90
6377;DHT22;3221;48.858;10.128;2023-07-31T08:53:30;16.40;99.90
6377;DHT22;3221;48.858;10.128;2023-07-31T08:55:58;16.70;99.90
6377;DHT22;3221;48.858;10.128;2023-07-31T08:58:28;16.60;99.90
6377;DHT22;3221;48.858;10.128;2023-07-31T09:00:57;16.60;99.90
6377;DHT22;3221;48.858;10.128;2023-07-31T09:03:25;16.80;99.90
6377;DHT22;3221;48.858;10.128;2023-07-31T09:05:53;16.80;99.90
6377;DHT22;3221;48.858;10.128;2023-07-31T09:08:22;16.90;99.90
6377;DHT22;3221;48.858;10.128;2023-07-31T09:10:49;16.80;99.90
6377;DHT22;3221;48.858;10.128;2023-07-31T09:13:18;16.70;99.90
6377;DHT22;3221;48.858;10.128;2023-07-31T09:15:46;16.90;99.90
6377;DHT22;3221;48.858;10.128;2023-07-31T09:18:13;17.00;99.90
6377;DHT22;3221;48.858;10.128;2023-07-31T09:20:45;17.10;99.90
6377;DHT22;3221;48.858;10.128;2023-07-31T09:23:16;17.20;99.90
6377;DHT22;3221;48.858;10.128;2023-07-31T09:25:44;17.20;99.90
6377;DHT22;3221;48.858;10.128;2023-07-31T09:28:11;17.20;99.90
6377;DHT22;3221;48.858;10.128;2023-07-31T09:30:51;17.30;99.90
6377;DHT22;3221;48.858;10.128;2023-07-31T09:33:19;17.30;99.90
6377;DHT22;3221;48.858;10.128;2023-07-31T09:35:49;17.30;99.90
6377;DHT22;3221;48.858;10.128;2023-07-31T09:38:16;17.30;99.90
6377;DHT22;3221;48.858;10.128;2023-07-31T09:40:46;17.30;99.90
6377;DHT22;3221;48.858;10.128;2023-07-31T09:43:23;17.30;99.90
6377;DHT22;3221;48.858;10.128;2023-07-31T09:45:55;17.50;99.90
6377;DHT22;3221;48.858;10.128;2023-07-31T09:48:24;17.50;99.90
6377;DHT22;3221;48.858;10.128;2023-07-31T09:50:54;17.50;99.90
6377;DHT22;3221;48.858;10.128;2023-07-31T09:53:28;17.50;99.90
6377;DHT22;3221;48.858;10.128;2023-07-31T09:55:58;17.50;99.90
6377;DHT22;3221;48.858;10.128;2023-07-31T09:58:28;17.50;99.90
6377;DHT22;3221;48.858;10.128;2023-07-31T10:00:57;17.60;99.90
6377;DHT22;3221;48.858;10.128;2023-07-31T10:03:26;17.70;99.90
6377;DHT22;3221;48.858;10.128;2023-07-31T10:05:55;17.90;99.90
6377;DHT22;3221;48.858;10.128;2023-07-31T10:08:28;17.90;99.90
6377;DHT22;3221;48.858;10.128;2023-07-31T10:10:59;18.10;99.90
6377;DHT22;3221;48.858;10.128;2023-07-31T10:13:27;18.20;99.90
6377;DHT22;3221;48.858;10.128;2023-07-31T10:15:58;18.00;99.90
6377;DHT22;3221;48.858;10.128;2023-07-31T10:18:26;18.10;99.90
6377;DHT22;3221;48.858;10.128;2023-07-31T10:20:54;18.10;99.90
6377;DHT22;3221;48.858;10.128;2023-07-31T10:23:23;17.90;99.90
6377;DHT22;3221;48.858;10.128;2023-07-31T10:25:53;18.10;99.90
6377;DHT22;3221;48.858;10.128;2023-07-31T10:28:21;18.20;99.90
6377;DHT22;3221;48.858;10.128;2023-07-31T10:30:49;18.20;99.90
6377;DHT22;3221;48.858;10.128;2023-07-31T10:33:17;18.30;99.90
6377;DHT22;3221;48.858;10.128;2023-07-31T10:35:44;18.00;99.90
6377;DHT22;3221;48.858;10.128;2023-07-31T10:38:13;18.20;99.90
6377;DHT22;3221;48.858;10.128;2023-07-31T10:40:41;18.20;99.90
6377;DHT22;3221;48.858;10.128;2023-07-31T10:43:08;18.30;99.90
6377;DHT22;3221;48.858;10.128;2023-07-31T10:45:58;18.30;99.90
6377;DHT22;3221;48.858;10.128;2023-07-31T10:48:33;18.20;99.90
6377;DHT22;3221;48.858;10.128;2023-07-31T10:51:00;18.30;99.90
6377;DHT22;3221;48.858;10.128;2023-07-31T10:53:30;18.40;99.90
6377;DHT22;3221;48.858;10.128;2023-07-31T10:56:02;18.30;99.90
6377;DHT22;3221;48.858;10.128;2023-07-31T10:58:30;18.50;99.90
6377;DHT22;3221;48.858;10.128;2023-07-31T11:01:01;18.50;99.90
6377;DHT22;3221;48.858;10.128;2023-07-31T11:03:42;18.50;99.90
6377;DHT22;3221;48.858;10.128;2023-07-31T11:06:10;18.40;99.90
6377;DHT22;3221;48.858;10.128;2023-07-31T11:08:45;18.40;99.90
6377;DHT22;3221;48.858;10.128;2023-07-31T11:11:14;18.60;99.90
6377;DHT22;3221;48.858;10.128;2023-07-31T11:13:46;18.70;99.90
6377;DHT22;3221;48.858;10.128;2023-07-31T11:16:21;18.60;99.90
6377;DHT22;3221;48.858;10.128;2023-07-31T11:18:49;18.70;99.90
6377;DHT22;3221;48.858;10.128;2023-07-31T11:21:19;18.70;99.90
6377;DHT22;3221;48.858;10.128;2023-07-31T11:23:52;18.60;99.90
6377;DHT22;3221;48.858;10.128;2023-07-31T11:26:20;18.80;99.90
6377;DHT22;3221;48.858;10.128;2023-07-31T11:28:47;18.70;99.90
6377;DHT22;3221;48.858;10.128;2023-07-31T11:31:14;18.70;99.90
6377;DHT22;3221;48.858;10.128;2023-07-31T11:33:42;18.70;99.90
6377;DHT22;3221;48.858;10.128;2023-07-31T11:36:22;18.80;99.90
6377;DHT22;3221;48.858;10.128;2023-07-31T11:38:49;18.70;99.90
6377;DHT22;3221;48.858;10.128;2023-07-31T11:41:16;18.70;99.90
6377;DHT22;3221;48.858;10.128;2023-07-31T11:43:45;18.70;99.90
6377;DHT22;3221;48.858;10.128;2023-07-31T11:46:13;18.70;99.90
6377;DHT22;3221;48.858;10.128;2023-07-31T11:48:42;18.70;99.90
6377;DHT22;3221;48.858;10.128;2023-07-31T11:51:14;18.80;99.90
6377;DHT22;3221;48.858;10.128;2023-07-31T11:53:49;18.90;99.90
6377;DHT22;3221;48.858;10.128;2023-07-31T11:56:43;18.90;99.90
6377;DHT22;3221;48.858;10.128;2023-07-31T12:03:00;19.00;99.90
6377;DHT22;3221;48.858;10.128;2023-07-31T12:05:27;19.30;99.90
6377;DHT22;3221;48.858;10.128;2023-07-31T12:08:44;19.30;99.90
6377;DHT22;3221;48.858;10.128;2023-07-31T12:11:14;19.30;99.90
6377;DHT22;3221;48.858;10.128;2023-07-31T12:13:42;19.30;99.90
6377;DHT22;3221;48.858;10.128;2023-07-31T12:16:09;19.40;99.90
6377;DHT22;3221;48.858;10.128;2023-07-31T12:18:39;19.40;99.90
6377;DHT22;3221;48.858;10.128;2023-07-31T12:21:08;19.50;99.90
6377;DHT22;3221;48.858;10.128;2023-07-31T12:23:37;19.60;99.90
6377;DHT22;3221;48.858;10.128;2023-07-31T12:26:15;19.60;99.90
6377;DHT22;3221;48.858;10.128;2023-07-31T12:28:50;19.60;99.90
6377;DHT22;3221;48.858;10.128;2023-07-31T12:31:45;19.70;99.90
6377;DHT22;3221;48.858;10.128;2023-07-31T12:34:42;19.80;99.90
6377;DHT22;3221;48.858;10.128;2023-07-31T12:37:12;19.90;99.90
6377;DHT22;3221;48.858;10.128;2023-07-31T12:40:04;19.90;99.90
6377;DHT22;3221;48.858;10.128;2023-07-31T12:42:35;19.90;99.90
6377;DHT22;3221;48.858;10.128;2023-07-31T12:45:02;19.90;99.90
6377;DHT22;3221;48.858;10.128;2023-07-31T12:47:37;19.80;99.90
6377;DHT22;3221;48.858;10.128;2023-07-31T12:50:08;19.70;99.90
6377;DHT22;3221;48.858;10.128;2023-07-31T12:52:44;19.80;99.90
6377;DHT22;3221;48.858;10.128;2023-07-31T12:55:11;19.70;99.90
6377;DHT22;3221;48.858;10.128;2023-07-31T12:57:39;19.70;99.90
6377;DHT22;3221;48.858;10.128;2023-07-31T13:00:07;19.60;99.90
6377;DHT22;3221;48.858;10.128;2023-07-31T13:02:34;19.60;99.90
6377;DHT22;3221;48.858;10.128;2023-07-31T13:08:22;19.70;99.90
6377;DHT22;3221;48.858;10.128;2023-07-31T13:10:53;19.80;99.90
6377;DHT22;3221;48.858;10.128;2023-07-31T13:13:20;19.90;99.90
6377;DHT22;3221;48.858;10.128;2023-07-31T13:16:00;20.00;99.90
6377;DHT22;3221;48.858;10.128;2023-07-31T13:18:30;20.00;99.90
6377;DHT22;3221;48.858;10.128;2023-07-31T13:20:57;20.00;99.90
6377;DHT22;3221;48.858;10.128;2023-07-31T13:23:24;20.10;99.90
6377;DHT22;3221;48.858;10.128;2023-07-31T13:25:51;20.10;99.90
6377;DHT22;3221;48.858;10.128;2023-07-31T13:28:18;20.00;99.90
6377;DHT22;3221;48.858;10.128;2023-07-31T13:30:45;20.00;99.90
6377;DHT22;3221;48.858;10.128;2023-07-31T13:33:12;20.00;99.90
6377;DHT22;3221;48.858;10.128;2023-07-31T13:35:59;20.30;99.90
6377;DHT22;3221;48.858;10.128;2023-07-31T13:38:52;20.40;99.90
6377;DHT22;3221;48.858;10.128;2023-07-31T13:41:19;20.60;99.90
6377;DHT22;3221;48.858;10.128;2023-07-31T13:43:46;20.50;99.90
6377;DHT22;3221;48.858;10.128;2023-07-31T13:46:32;20.50;99.90
6377;DHT22;3221;48.858;10.128;2023-07-31T13:49:04;20.50;99.90
6377;DHT22;3221;48.858;10.128;2023-07-31T13:51:31;20.50;99.90
6377;DHT22;3221;48.858;10.128;2023-07-31T13:54:01;20.40;99.90
6377;DHT22;3221;48.858;10.128;2023-07-31T13:56:31;20.50;99.90
6377;DHT22;3221;48.858;10.128;2023-07-31T13:59:03;20.50;99.90
6377;DHT22;3221;48.858;10.128;2023-07-31T14:01:30;20.60;99.90
6377;DHT22;3221;48.858;10.128;2023-07-31T14:03:57;20.50;99.90
6377;DHT22;3221;48.858;10.128;2023-07-31T14:06:25;20.40;99.90
6377;DHT22;3221;48.858;10.128;2023-07-31T14:09:05;20.30;99.90
6377;DHT22;3221;48.858;10.128;2023-07-31T14:12:15;20.30;99.90
6377;DHT22;3221;48.858;10.128;2023-07-31T14:15:14;20.30;99.90
6377;DHT22;3221;48.858;10.128;2023-07-31T14:17:41;20.30;99.90
6377;DHT22;3221;48.858;10.128;2023-07-31T14:20:09;20.30;99.90
6377;DHT22;3221;48.858;10.128;2023-07-31T14:26:14;20.20;99.90
6377;DHT22;3221;48.858;10.128;2023-07-31T14:28:40;20.10;99.90
6377;DHT22;3221;48.858;10.128;2023-07-31T14:31:07;20.00;99.90
6377;DHT22;3221;48.858;10.128;2023-07-31T14:33:34;20.10;99.90
6377;DHT22;3221;48.858;10.128;2023-07-31T14:36:02;20.00;99.90
6377;DHT22;3221;48.858;10.128;2023-07-31T14:38:29;19.90;99.90
6377;DHT22;3221;48.858;10.128;2023-07-31T14:40:56;19.90;99.90
6377;DHT22;3221;48.858;10.128;2023-07-31T14:43:23;19.80;99.90
6377;DHT22;3221;48.858;10.128;2023-07-31T14:45:49;19.80;99.90
6377;DHT22;3221;48.858;10.128;2023-07-31T14:48:16;19.90;99.90
6377;DHT22;3221;48.858;10.128;2023-07-31T14:50:43;19.70;99.90
6377;DHT22;3221;48.858;10.128;2023-07-31T14:53:10;19.80;99.90
6377;DHT22;3221;48.858;10.128;2023-07-31T14:55:37;19.70;99.90
6377;DHT22;3221;48.858;10.128;2023-07-31T14:58:04;19.60;99.90
6377;DHT22;3221;48.858;10.128;2023-07-31T15:00:30;19.80;99.90
6377;DHT22;3221;48.858;10.128;2023-07-31T15:02:57;19.70;99.90
6377;DHT22;3221;48.858;10.128;2023-07-31T15:05:24;19.70;99.90
6377;DHT22;3221;48.858;10.128;2023-07-31T15:07:51;19.80;99.90
6377;DHT22;3221;48.858;10.128;2023-07-31T15:10:19;19.70;99.90
6377;DHT22;3221;48.858;10.128;2023-07-31T15:12:46;19.70;99.90
6377;DHT22;3221;48.858;10.128;2023-07-31T15:15:14;19.90;99.90
6377;DHT22;3221;48.858;10.128;2023-07-31T15:17:41;19.80;99.90
6377;DHT22;3221;48.858;10.128;2023-07-31T15:20:09;19.80;99.90
6377;DHT22;3221;48.858;10.128;2023-07-31T15:22:36;19.80;99.90
6377;DHT22;3221;48.858;10.128;2023-07-31T15:25:03;19.80;99.90
6377;DHT22;3221;48.858;10.128;2023-07-31T15:27:30;19.80;99.90
6377;DHT22;3221;48.858;10.128;2023-07-31T15:29:57;19.70;99.90
6377;DHT22;3221;48.858;10.128;2023-07-31T15:32:24;19.70;99.90
6377;DHT22;3221;48.858;10.128;2023-07-31T15:34:51;19.70;99.90
6377;DHT22;3221;48.858;10.128;2023-07-31T15:37:18;19.70;99.90
6377;DHT22;3221;48.858;10.128;2023-07-31T15:39:45;19.70;99.90
6377;DHT22;3221;48.858;10.128;2023-07-31T15:42:12;19.70;99.90
6377;DHT22;3221;48.858;10.128;2023-07-31T15:44:39;19.70;99.90
6377;DHT22;3221;48.858;10.128;2023-07-31T15:47:06;19.90;99.90
6377;DHT22;3221;48.858;10.128;2023-07-31T15:49:32;19.90;99.90
6377;DHT22;3221;48.858;10.128;2023-07-31T15:51:59;20.00;99.90
6377;DHT22;3221;48.858;10.128;2023-07-31T15:54:26;20.00;99.90
6377;DHT22;3221;48.858;10.128;2023-07-31T15:56:53;19.90;99.90
6377;DHT22;3221;48.858;10.128;2023-07-31T15:59:20;19.90;99.90
6377;DHT22;3221;48.858;10.128;2023-07-31T16:01:47;20.00;99.90
6377;DHT22;3221;48.858;10.128;2023-07-31T16:04:14;19.90;99.90
6377;DHT22;3221;48.858;10.128;2023-07-31T16:06:41;20.00;99.90
6377;DHT22;3221;48.858;10.128;2023-07-31T16:09:08;20.00;99.90
6377;DHT22;3221;48.858;10.128;2023-07-31T16:11:35;20.00;99.90
6377;DHT22;3221;48.858;10.128;2023-07-31T16:14:02;20.00;99.90